YVQ weather

Norman Wells Airport
Norman Wells, Northwest Territories, Canada

Public forecast

Using degrees Celsius for public forecast. Weather courtesy of forecast.io.

METAR (pilot weather report)

Retrieved 2019/08/25 01:00 UTC (32 minutes ago):

CYVQ 250100Z 25008KT 30SM FEW030 SCT080 BKN250 12/06 A2976 RMK CU2AC1CI2 SLP083

TAF (pilot weather forecast)

Forecast is more than 12 hours old.

Retrieved 2019/08/24 00:39 UTC (1 day ago):

TAF CYVQ 242338Z 2500/2512 29008KT P6SM FEW020 BKN100 BECMG 2504/2506 VRB03KT FM250600 VRB03KT P6SM FEW100 PROB30 2509/2512 1/2SM FG RMK NXT FCST BY 250600Z